Aeroporto :
LOGIN :

Iscrizione | Disclaimer

   EN    FR    IT 

 










Sommario :    VFR   VFR Marginale   IFR   IFR Intensivo   IFR Molto Intensivo
Visibilità : 
Base nubi : 
>= 8 km
>= 3000ft
5 / 8 km
1000 / 3000 ft
1500m / 5 km
500 / 1000 ft
800 / 1500m
200 / 500 ft
< 800m
< 200 ft
Simboli :   Temporali  Nebbia  Neve Forte  Precipitazioni Forti  Vento > 20 kt
SIGMETs :   Varie  Temporali  Ghiacco  Turbolenza  Onda orograficha  Ceneri Vulcaniche







- Altitudine del aeroporto : 13 ft
- Codice IATA : CAG


LIEE - Cagliari Elmas

ULTIMO METAR :
  • 232220Z 35006KT CAVOK 10/08 Q1023

METARs OBSOLETI :
  • 232150Z 34005KT CAVOK 10/08 Q1023
  • 232120Z VRB02KT CAVOK 11/09 Q1023
  • 232050Z 31002KT CAVOK 12/09 Q1023
  • 232020Z 02002KT CAVOK 12/09 Q1023
  • 231950Z 04003KT CAVOK 13/09 Q1023

TAF AMD TAF LIEE
Valido dal 23 a 21 ore il 24 a 18 ore UTC


232119Z 2321/2418 VRB05KT CAVOK
Nessun NOTAM noto per questo aeroporto.



MetMap, La meteo Aeronautica in un colpo d'occhio ! - Copyright ORBIFLY Dicembre 2007 - Disclaimer

ORBIFLY MET'MAP TEAM :

Programmazione e sviluppo : Alexandra Zaïnal
Concezione e sviluppo : Baudouin d'Aumeries
Co-Programmazione e sviluppo : Marc-Olivier Méhu
Supporto tecnico e logistico : Manuel Goepfert
Aiuto per la traduzione : Arnaldo La Scala

Contatto : metmap@orbifly.com




FONTI E CREDITI :

   NOAA